Time;durP1;ratioP1;P1;durP2;ratioP2;P2;SDS_P1;SDS_P2;PMS_P1;PMS_P2;Temp;Humidity;BMP_temperature;BMP_pressure;BME280_temperature;BME280_humidity;BME280_pressure;Samples;Min_cycle;Max_cycle;Signal;HPM_P1;HPM_P2
2023/12/05 00:00:58;;;;;;;29.75;20.63;;;;;;;-145.63;52.67;38527.56;5082566;28;20020;-65
2023/12/05 00:03:24;;;;;;;29.08;21.30;;;;;;;-145.63;52.03;39020.34;5081454;28;20051;-64
2023/12/05 00:05:50;;;;;;;29.55;20.92;;;;;;;-145.63;52.88;39000.78;5082707;28;20037;-65
2023/12/05 00:08:17;;;;;;;29.15;20.27;;;;;;;-145.63;52.91;39006.66;5082097;28;20095;-65
2023/12/05 00:10:43;;;;;;;30.70;21.33;;;;;;;-145.63;52.25;38996.88;5082689;28;20029;-65
2023/12/05 00:13:09;;;;;;;29.30;19.65;;;;;;;-145.63;52.42;39008.59;5082754;28;20027;-65
2023/12/05 00:15:34;;;;;;;29.52;20.23;;;;;;;-145.63;52.10;38998.81;5082673;28;20024;-65
2023/12/05 00:18:00;;;;;;;28.42;20.17;;;;;;;-145.63;52.12;38816.97;5088339;28;20027;-65
2023/12/05 00:20:26;;;;;;;29.92;20.02;;;;;;;-145.63;52.39;38985.13;5082522;28;20021;-64
2023/12/05 00:22:52;;;;;;;27.23;19.23;;;;;;;-145.63;52.54;38961.66;5082670;28;20024;-65
2023/12/05 00:25:18;;;;;;;31.52;21.50;;;;;;;-145.63;52.71;38991.00;5082374;28;20024;-65
2023/12/05 00:27:44;;;;;;;29.35;19.48;;;;;;;-145.63;51.89;38924.50;5081155;28;20093;-64
2023/12/05 00:30:10;;;;;;;27.50;19.15;;;;;;;-145.63;52.49;39016.44;5081706;28;20036;-65
2023/12/05 00:32:36;;;;;;;27.63;19.70;;;;;;;-145.63;52.67;39010.56;5082472;28;20028;-63
2023/12/05 00:35:03;;;;;;;27.50;19.90;;;;;;;-145.63;52.78;39006.66;5081517;28;20048;-65
2023/12/05 00:37:30;;;;;;;27.23;19.92;;;;;;;-145.63;52.65;39022.28;5080584;28;20365;-64
2023/12/05 00:39:55;;;;;;;25.75;19.02;;;;;;;-145.63;53.16;38992.97;5080008;28;20024;-64
2023/12/05 00:42:21;;;;;;;29.50;20.27;;;;;;;-145.63;52.52;39012.50;5082416;28;20305;-63
2023/12/05 00:44:47;;;;;;;25.77;18.58;;;;;;;-145.63;52.96;39010.56;5082323;28;20044;-64
2023/12/05 00:47:13;;;;;;;26.95;19.25;;;;;;;-145.63;52.58;38998.81;5082413;28;20312;-64
2023/12/05 00:49:38;;;;;;;26.95;19.00;;;;;;;-145.63;53.02;39008.59;5079500;28;20079;-65
2023/12/05 00:52:05;;;;;;;27.20;19.23;;;;;;;-145.63;53.34;38871.72;5082280;28;20028;-64
2023/12/05 00:54:31;;;;;;;27.48;19.88;;;;;;;-145.63;53.31;39010.56;5082180;28;20052;-63
2023/12/05 00:56:57;;;;;;;26.95;19.23;;;;;;;-145.63;53.27;39006.66;5082068;28;20028;-64
2023/12/05 00:59:23;;;;;;;27.95;18.90;;;;;;;-145.63;52.89;39032.06;5082379;28;20042;-65
2023/12/05 01:01:48;;;;;;;26.73;18.38;;;;;;;-145.63;53.01;39028.16;5082243;28;20025;-64
2023/12/05 01:04:14;;;;;;;25.90;19.50;;;;;;;-145.63;53.69;39008.59;5082251;28;20304;-65
2023/12/05 01:06:40;;;;;;;24.63;18.48;;;;;;;-145.63;53.36;39053.59;5082079;28;20146;-64
2023/12/05 01:09:06;;;;;;;26.55;18.58;;;;;;;-145.63;53.23;39043.81;5082152;28;20036;-65
2023/12/05 01:11:32;;;;;;;24.40;18.13;;;;;;;-145.63;52.47;39016.44;5081231;28;20037;-64
2023/12/05 01:13:57;;;;;;;27.50;19.63;;;;;;;-145.63;53.14;39034.03;5082134;28;20044;-64
2023/12/05 01:16:23;;;;;;;27.45;19.27;;;;;;;-145.63;53.37;38998.81;5079950;28;20024;-64
2023/12/05 01:18:49;;;;;;;26.77;19.15;;;;;;;-145.63;53.80;38994.91;5088880;28;20102;-65
2023/12/05 01:21:15;;;;;;;25.75;17.92;;;;;;;-145.63;53.52;39034.03;5081744;28;20021;-65
2023/12/05 01:23:41;;;;;;;26.88;20.08;;;;;;;-145.63;53.84;38996.88;5082156;28;20032;-64
2023/12/05 01:26:07;;;;;;;24.73;17.98;;;;;;;-145.63;54.12;38969.50;5081994;28;20017;-65
2023/12/05 01:28:32;;;;;;;25.25;19.38;;;;;;;-145.63;53.93;39024.25;5082080;28;20028;-64
2023/12/05 01:30:58;;;;;;;24.55;18.80;;;;;;;-145.63;54.44;39018.38;5077631;28;20021;-64
2023/12/05 01:33:24;;;;;;;26.13;17.67;;;;;;;-145.63;54.80;39018.38;5081676;28;20092;-63
2023/12/05 01:35:50;;;;;;;25.65;18.95;;;;;;;-145.63;54.32;38985.13;5080494;28;20112;-64
2023/12/05 01:38:18;;;;;;;26.42;18.58;;;;;;;-145.63;54.38;38971.44;5081925;28;20092;-65
2023/12/05 01:40:44;;;;;;;26.05;18.63;;;;;;;-145.63;54.21;39018.38;5071536;28;20032;-64
2023/12/05 01:43:10;;;;;;;25.00;18.48;;;;;;;-145.63;54.51;39028.16;5081828;28;20036;-63
2023/12/05 01:45:37;;;;;;;25.40;18.48;;;;;;;-145.63;54.26;39022.28;5081579;28;20056;-64
2023/12/05 01:48:05;;;;;;;26.55;18.33;;;;;;;-145.63;53.58;39022.28;5081777;28;20193;-63
2023/12/05 01:50:33;;;;;;;26.65;18.02;;;;;;;-145.63;53.35;39049.66;5082752;28;20309;-63
2023/12/05 01:53:04;;;;;;;28.45;19.05;;;;;;;-145.63;53.56;38856.06;5066579;28;20237;-64
2023/12/05 01:55:30;;;;;;;25.55;18.90;;;;;;;-145.63;54.64;38973.41;5085392;28;20032;-63
2023/12/05 01:57:57;;;;;;;23.60;18.13;;;;;;;-145.63;53.51;39012.50;5084805;28;20024;-64
2023/12/05 02:00:24;;;;;;;25.23;18.15;;;;;;;-145.63;54.02;39028.16;5076332;28;20025;-65
2023/12/05 02:02:50;;;;;;;27.00;18.25;;;;;;;-145.63;53.72;38992.97;5082326;28;20193;-64
2023/12/05 02:05:16;;;;;;;25.17;18.30;;;;;;;-145.63;54.85;39014.47;5085371;28;20017;-64
2023/12/05 02:07:42;;;;;;;23.20;17.70;;;;;;;-145.63;54.78;39039.88;5084334;28;20336;-65
2023/12/05 02:10:10;;;;;;;24.15;18.42;;;;;;;-145.63;54.16;39037.94;5083885;28;20091;-64
2023/12/05 02:12:39;;;;;;;25.20;17.95;;;;;;;-145.63;54.33;39030.13;5084082;28;20021;-64
2023/12/05 02:15:07;;;;;;;26.75;18.40;;;;;;;-145.63;54.49;39037.94;5078750;28;20017;-64
2023/12/05 02:18:04;;;;;;;26.38;18.83;;;;;;;-145.63;54.61;39008.59;5084826;28;20024;-65
2023/12/05 02:20:54;;;;;;;23.98;17.90;;;;;;;-145.63;54.97;39032.06;5103426;28;20043;-64
2023/12/05 02:23:41;;;;;;;25.38;18.30;;;;;;;-145.63;55.09;39059.44;5084544;28;20037;-64
2023/12/05 02:26:34;;;;;;;25.05;18.10;;;;;;;-145.63;55.05;39039.88;5083333;28;20032;-64
2023/12/05 02:29:00;;;;;;;26.15;18.08;;;;;;;-145.63;54.74;39032.06;5064630;28;20217;-64
2023/12/05 02:31:26;;;;;;;24.70;18.00;;;;;;;-145.63;54.84;39034.03;5081662;28;20031;-64
2023/12/05 02:33:52;;;;;;;24.90;18.00;;;;;;;-145.63;54.92;39004.69;5084000;28;20087;-64
2023/12/05 02:36:24;;;;;;;24.38;18.00;;;;;;;-145.63;55.13;38985.13;5082814;28;20051;-65
2023/12/05 02:38:56;;;;;;;30.45;21.85;;;;;;;-145.63;55.43;39051.63;5080297;28;20032;-64
2023/12/05 02:41:28;;;;;;;26.83;19.38;;;;;;;-145.63;54.72;39024.25;5079899;28;20040;-66
2023/12/05 02:44:12;;;;;;;25.33;19.63;;;;;;;-145.63;55.56;38363.31;5084225;28;20084;-64
2023/12/05 02:46:40;;;;;;;25.65;18.80;;;;;;;-145.63;54.33;39043.81;5084330;28;20025;-64
2023/12/05 02:49:07;;;;;;;29.55;19.77;;;;;;;-145.63;54.38;39039.88;5083874;28;20469;-64
2023/12/05 02:51:33;;;;;;;24.95;18.63;;;;;;;-145.63;54.61;39034.03;5084274;28;20239;-65
2023/12/05 02:54:05;;;;;;;25.95;18.88;;;;;;;-145.63;54.39;39014.47;5083370;28;20020;-66
2023/12/05 02:56:35;;;;;;;24.42;17.85;;;;;;;-145.63;53.87;39071.19;5083791;28;20031;-66
2023/12/05 02:59:00;;;;;;;26.23;19.48;;;;;;;-145.63;55.15;39037.94;5083771;28;20293;-66
2023/12/05 03:01:26;;;;;;;24.10;18.77;;;;;;;-145.63;55.23;39055.53;5083886;28;20032;-65
2023/12/05 03:03:52;;;;;;;26.83;18.95;;;;;;;-145.63;55.33;39047.72;5082609;28;20044;-65
2023/12/05 03:06:17;;;;;;;25.70;18.50;;;;;;;-145.63;54.21;39073.13;5083704;28;20028;-65
2023/12/05 03:08:43;;;;;;;24.65;17.90;;;;;;;-145.63;54.22;39049.66;5084131;28;20108;-66
2023/12/05 03:11:09;;;;;;;26.35;18.13;;;;;;;-145.63;53.30;39049.66;5082517;28;20025;-65
2023/12/05 03:13:39;;;;;;;25.73;18.80;;;;;;;-145.63;54.00;39043.81;5083037;28;20028;-66
2023/12/05 03:16:05;;;;;;;26.65;18.80;;;;;;;-145.63;52.89;39065.31;5083334;28;20051;-64
2023/12/05 03:18:30;;;;;;;22.52;17.35;;;;;;;-145.63;54.07;39059.44;5086188;28;20028;-66
2023/12/05 03:20:56;;;;;;;26.02;17.88;;;;;;;-145.63;53.24;39037.94;5078924;28;20107;-63
2023/12/05 03:23:22;;;;;;;25.38;17.67;;;;;;;-145.63;53.24;39045.75;5068236;28;20032;-66
2023/12/05 03:25:48;;;;;;;24.80;19.02;;;;;;;-145.63;53.22;39077.06;5081695;28;20190;-66
2023/12/05 03:28:13;;;;;;;23.88;17.42;;;;;;;-145.63;53.61;39043.81;5083167;28;20047;-66
2023/12/05 03:30:39;;;;;;;22.75;17.15;;;;;;;-145.63;53.19;39075.09;5075296;28;20027;-64
2023/12/05 03:33:05;;;;;;;23.65;18.30;;;;;;;-145.63;53.47;39067.28;5082416;28;20231;-65
2023/12/05 03:35:30;;;;;;;25.02;18.83;;;;;;;-145.63;54.58;39063.34;5082354;28;20043;-66
2023/12/05 03:37:56;;;;;;;23.58;18.13;;;;;;;-145.63;54.06;39073.13;5075802;28;20036;-66
2023/12/05 03:40:22;;;;;;;26.42;18.65;;;;;;;-145.63;54.24;39069.22;5082818;28;20043;-64
2023/12/05 03:42:47;;;;;;;23.83;17.55;;;;;;;-145.63;53.64;39071.19;5082524;28;20029;-64
2023/12/05 03:45:13;;;;;;;24.13;17.63;;;;;;;-145.63;54.13;39065.31;5076048;28;20075;-63
2023/12/05 03:47:39;;;;;;;25.75;18.85;;;;;;;-145.63;53.28;39057.50;5081968;28;20258;-65
2023/12/05 03:50:05;;;;;;;25.30;18.48;;;;;;;-145.63;52.34;39059.44;5082812;28;20084;-64
2023/12/05 03:52:30;;;;;;;24.48;17.65;;;;;;;-145.63;53.05;39061.41;5082862;28;20028;-65
2023/12/05 03:54:56;;;;;;;24.42;17.85;;;;;;;-145.63;52.73;39071.19;5081640;28;20020;-65
2023/12/05 03:57:22;;;;;;;22.05;17.05;;;;;;;-145.63;52.52;39055.53;5073743;28;20216;-65
2023/12/05 03:59:47;;;;;;;23.92;17.83;;;;;;;-145.63;52.31;39069.22;5070696;28;20021;-65
2023/12/05 04:02:13;;;;;;;23.73;17.92;;;;;;;-145.63;52.02;39053.59;5082222;28;20107;-67
2023/12/05 04:04:39;;;;;;;24.45;18.45;;;;;;;-145.63;53.06;39047.72;5071913;28;20039;-65
2023/12/05 04:07:05;;;;;;;22.58;17.42;;;;;;;-145.63;53.05;38961.66;5081552;28;20030;-66
2023/12/05 04:09:31;;;;;;;25.95;18.52;;;;;;;-145.63;53.27;39077.06;5079148;28;20040;-66
2023/12/05 04:11:57;;;;;;;24.08;18.23;;;;;;;-145.63;51.37;39110.28;5082304;28;20091;-66
2023/12/05 04:14:24;;;;;;;24.75;17.27;;;;;;;-145.63;51.98;39039.88;5081922;28;20044;-65
2023/12/05 04:16:50;;;;;;;24.58;17.77;;;;;;;-145.63;51.92;39059.44;5082160;28;20032;-66
2023/12/05 04:19:16;;;;;;;24.73;18.08;;;;;;;-145.63;52.36;39041.84;5082131;28;20081;-67
2023/12/05 04:21:42;;;;;;;24.63;18.23;;;;;;;-145.63;52.70;39039.88;5071554;28;20306;-66
2023/12/05 04:24:07;;;;;;;23.67;17.95;;;;;;;-145.63;51.69;39086.81;5067975;28;20024;-66
2023/12/05 04:26:33;;;;;;;24.75;17.75;;;;;;;-145.63;52.23;39067.28;5081874;28;20168;-66
2023/12/05 04:28:59;;;;;;;24.83;18.17;;;;;;;-145.63;51.25;39049.66;5082531;28;20333;-64
2023/12/05 04:31:27;;;;;;;26.10;18.35;;;;;;;-145.63;52.52;39043.81;5081497;28;20029;-65
2023/12/05 04:33:53;;;;;;;25.00;19.27;;;;;;;-145.63;52.54;38906.91;5082402;28;20089;-64
2023/12/05 04:36:19;;;;;;;22.95;17.80;;;;;;;-145.63;52.61;39049.66;5081204;28;20052;-65
2023/12/05 04:38:45;;;;;;;25.33;18.73;;;;;;;-145.63;51.73;39039.88;5081084;28;20034;-65
2023/12/05 04:41:11;;;;;;;23.27;17.60;;;;;;;-145.63;52.67;39057.50;5081502;28;20607;-65
2023/12/05 04:43:36;;;;;;;26.25;18.52;;;;;;;-145.63;52.17;38633.16;5082443;28;20024;-65
2023/12/05 04:46:02;;;;;;;25.25;17.75;;;;;;;-145.63;52.21;39039.88;5081675;28;20130;-66
2023/12/05 04:48:28;;;;;;;25.13;18.77;;;;;;;-145.63;52.12;39041.84;5081258;28;20017;-67
2023/12/05 04:50:54;;;;;;;22.98;17.27;;;;;;;-145.63;52.02;38899.09;5081599;28;20020;-66
2023/12/05 04:53:19;;;;;;;22.95;17.55;;;;;;;-145.63;52.16;39032.06;5082365;28;20255;-65
2023/12/05 04:55:45;;;;;;;21.77;16.75;;;;;;;-145.63;50.85;39049.66;5066546;28;20506;-66
2023/12/05 04:58:11;;;;;;;21.50;16.27;;;;;;;-145.63;51.31;39016.44;5081085;28;20071;-66
2023/12/05 05:00:37;;;;;;;22.65;16.80;;;;;;;-145.63;50.69;39016.44;5074566;28;20112;-66
2023/12/05 05:03:04;;;;;;;23.70;16.77;;;;;;;-145.63;50.08;39057.50;5077729;28;20208;-66
2023/12/05 05:05:30;;;;;;;21.48;16.42;;;;;;;-145.63;51.20;39059.44;5063213;28;20032;-66
2023/12/05 05:07:55;;;;;;;22.38;16.73;;;;;;;-145.63;51.62;39086.81;5081917;28;20052;-66
2023/12/05 05:10:21;;;;;;;22.27;16.33;;;;;;;-145.63;50.51;39012.50;5082070;28;20487;-67
2023/12/05 05:12:47;;;;;;;22.58;16.60;;;;;;;-145.63;51.21;39035.97;5081870;28;20112;-66
2023/12/05 05:15:13;;;;;;;24.08;18.05;;;;;;;-145.63;50.53;39041.84;5076263;28;20032;-67
2023/12/05 05:17:39;;;;;;;24.25;16.13;;;;;;;-145.63;51.01;38989.03;5080350;28;20031;-66
2023/12/05 05:20:05;;;;;;;23.05;17.83;;;;;;;-145.63;50.51;39024.25;5078521;28;20146;-64
2023/12/05 05:22:31;;;;;;;23.88;17.58;;;;;;;-145.63;50.69;39088.78;5080567;28;20024;-65
2023/12/05 05:24:57;;;;;;;23.60;17.20;;;;;;;-145.63;50.70;39049.66;5077586;28;20078;-66
2023/12/05 05:27:23;;;;;;;23.10;17.80;;;;;;;-145.63;51.09;39014.47;5084999;28;20309;-65
2023/12/05 05:29:48;;;;;;;23.15;17.63;;;;;;;-145.63;50.61;39016.44;5083636;28;20028;-65
2023/12/05 05:32:14;;;;;;;24.42;17.67;;;;;;;-145.63;51.00;39026.19;5080700;28;20036;-64
2023/12/05 05:34:40;;;;;;;24.73;17.77;;;;;;;-145.63;50.88;38992.97;5085524;28;20228;-65
2023/12/05 05:37:07;;;;;;;23.80;17.45;;;;;;;-145.63;50.68;39039.88;5084638;28;20082;-67
2023/12/05 05:39:35;;;;;;;22.75;17.60;;;;;;;-145.63;50.78;39049.66;5084378;28;20032;-65
2023/12/05 05:42:01;;;;;;;23.02;17.75;;;;;;;-145.63;50.69;39022.28;5085261;28;20023;-65
2023/12/05 05:44:27;;;;;;;23.35;16.95;;;;;;;-145.63;50.21;39020.34;5085483;28;20028;-65
2023/12/05 05:46:53;;;;;;;31.17;17.83;;;;;;;-145.63;50.17;39008.59;5084933;28;20021;-65
2023/12/05 05:49:18;;;;;;;23.13;17.38;;;;;;;-145.63;50.30;39026.19;5085287;28;20344;-66
2023/12/05 05:51:44;;;;;;;24.27;18.20;;;;;;;-145.63;49.97;39020.34;5085110;28;20078;-66
2023/12/05 05:54:10;;;;;;;23.58;18.35;;;;;;;-145.63;51.06;39004.69;5084011;28;20212;-64
2023/12/05 05:56:39;;;;;;;24.85;18.13;;;;;;;-145.63;50.58;39008.59;5084685;28;20347;-63
2023/12/05 05:59:05;;;;;;;27.10;18.48;;;;;;;-145.63;51.14;39051.63;5083818;28;20031;-64
2023/12/05 06:01:31;;;;;;;24.75;18.60;;;;;;;-145.63;50.12;39004.69;5084440;28;20016;-64
2023/12/05 06:03:57;;;;;;;25.25;18.67;;;;;;;-145.63;51.18;38985.13;5082153;28;20024;-65
2023/12/05 06:06:22;;;;;;;24.20;18.60;;;;;;;-145.63;50.64;38965.56;5084907;28;20205;-67
2023/12/05 06:08:48;;;;;;;26.75;18.67;;;;;;;-145.63;50.43;38963.63;5083821;28;20048;-71
2023/12/05 06:11:14;;;;;;;23.83;17.50;;;;;;;-145.63;50.11;38983.19;5072291;28;20028;-63
2023/12/05 06:13:40;;;;;;;26.05;18.55;;;;;;;-145.63;50.99;38983.19;5084998;28;20032;-65
2023/12/05 06:16:06;;;;;;;25.30;19.08;;;;;;;-145.63;50.89;38957.75;5084995;28;20299;-64
2023/12/05 06:18:31;;;;;;;25.23;18.55;;;;;;;-145.63;50.91;38957.75;5083341;28;20190;-63
2023/12/05 06:20:57;;;;;;;24.98;18.80;;;;;;;-145.63;50.17;38953.84;5084127;28;20036;-64
2023/12/05 06:23:23;;;;;;;25.48;18.80;;;;;;;-145.63;50.78;38961.66;5072012;28;20020;-63
2023/12/05 06:25:49;;;;;;;25.38;18.20;;;;;;;-145.63;50.85;38953.84;5069621;28;20135;-64
2023/12/05 06:28:15;;;;;;;25.35;19.13;;;;;;;-145.63;51.12;38947.97;5084335;28;20039;-63
2023/12/05 06:30:40;;;;;;;27.52;18.30;;;;;;;-145.63;50.92;38916.69;5083286;28;20016;-64
2023/12/05 06:33:06;;;;;;;26.92;18.80;;;;;;;-145.63;51.29;39000.78;5083873;28;20039;-64
2023/12/05 06:35:32;;;;;;;26.67;19.52;;;;;;;-145.63;51.03;38926.47;5083708;28;20032;-64
2023/12/05 06:37:58;;;;;;;29.17;19.90;;;;;;;-145.63;51.37;38938.19;5078458;28;20037;-64
2023/12/05 06:40:23;;;;;;;29.63;20.02;;;;;;;-145.63;51.04;38461.06;5082525;28;20024;-64
2023/12/05 06:42:49;;;;;;;25.58;18.20;;;;;;;-145.63;51.01;38955.81;5074371;28;20039;-65
2023/12/05 06:45:15;;;;;;;29.42;19.60;;;;;;;-145.63;51.01;38934.28;5081816;28;20096;-64
2023/12/05 06:47:41;;;;;;;27.65;18.77;;;;;;;-145.63;51.39;38944.06;5084076;28;20020;-65
2023/12/05 06:50:10;;;;;;;26.73;20.17;;;;;;;-145.63;51.38;38912.78;5084340;28;20031;-63
2023/12/05 06:52:39;;;;;;;27.00;19.75;;;;;;;-145.63;51.39;38934.28;5084304;28;20055;-64
2023/12/05 06:55:06;;;;;;;30.92;20.45;;;;;;;-145.63;51.50;39053.59;5080838;28;20025;-65
2023/12/05 06:57:32;;;;;;;31.73;19.75;;;;;;;-145.63;51.25;38992.97;5076495;28;20040;-63
2023/12/05 06:59:58;;;;;;;26.65;18.95;;;;;;;-145.63;51.09;38906.91;5077086;28;20029;-64
2023/12/05 07:02:24;;;;;;;27.52;19.88;;;;;;;-145.63;51.64;38930.38;5080488;28;20095;-65
2023/12/05 07:04:49;;;;;;;28.90;19.55;;;;;;;-145.63;50.86;38932.34;5081340;28;20036;-66
2023/12/05 07:07:16;;;;;;;26.08;19.25;;;;;;;-145.63;50.86;38899.09;5083677;28;20027;-64
2023/12/05 07:09:42;;;;;;;26.40;19.42;;;;;;;-145.63;51.43;38922.56;5082855;28;20244;-65
2023/12/05 07:12:08;;;;;;;28.73;19.33;;;;;;;-145.63;51.63;38932.34;5083478;28;20028;-65
2023/12/05 07:14:35;;;;;;;27.67;20.05;;;;;;;-145.63;51.19;38852.16;5083120;28;20073;-65
2023/12/05 07:17:02;;;;;;;26.67;19.00;;;;;;;-145.63;51.60;38887.34;5080050;28;20021;-64
2023/12/05 07:19:28;;;;;;;27.27;19.50;;;;;;;-145.63;51.68;38938.19;5079959;28;20033;-66
2023/12/05 07:21:54;;;;;;;26.83;19.20;;;;;;;-145.63;51.31;38961.66;5078125;28;20031;-66
2023/12/05 07:24:20;;;;;;;26.15;18.83;;;;;;;-145.63;51.79;38957.75;5076623;28;20084;-65
2023/12/05 07:26:46;;;;;;;26.85;20.00;;;;;;;-145.63;51.39;38920.59;5082788;28;20056;-65
2023/12/05 07:29:13;;;;;;;26.83;18.60;;;;;;;-145.63;49.96;38916.69;5075667;28;20033;-66
2023/12/05 07:31:38;;;;;;;25.45;18.45;;;;;;;-145.63;50.15;38953.84;5080939;28;20086;-65
2023/12/05 07:34:04;;;;;;;26.55;19.55;;;;;;;-145.63;50.19;38895.19;5083069;28;20028;-65
2023/12/05 07:36:30;;;;;;;28.40;18.55;;;;;;;-145.63;49.86;38985.13;5077739;28;20316;-65
2023/12/05 07:38:55;;;;;;;26.08;18.70;;;;;;;-145.63;49.38;38912.78;5095276;28;20205;-64
2023/12/05 07:41:25;;;;;;;26.13;18.75;;;;;;;-145.63;49.25;38934.28;5082085;28;20096;-66
2023/12/05 07:43:52;;;;;;;26.27;19.20;;;;;;;-145.63;50.68;38951.88;5075826;28;20041;-66
2023/12/05 07:46:18;;;;;;;24.98;18.48;;;;;;;-145.63;50.05;38957.75;5097929;28;20039;-64
2023/12/05 07:48:44;;;;;;;25.33;18.50;;;;;;;-145.63;50.57;38947.97;5082295;28;20297;-65
2023/12/05 07:51:16;;;;;;;26.00;19.35;;;;;;;-145.63;49.51;39006.66;5078427;28;20036;-65
2023/12/05 07:53:45;;;;;;;26.63;19.00;;;;;;;-145.63;49.87;38944.06;5063108;28;20029;-64
2023/12/05 07:56:11;;;;;;;25.38;18.05;;;;;;;-145.63;49.92;38961.66;5075749;28;20021;-65
2023/12/05 07:58:37;;;;;;;26.92;19.35;;;;;;;-145.63;49.71;39000.78;5069567;28;20071;-64
2023/12/05 08:01:03;;;;;;;24.23;17.90;;;;;;;-145.63;49.38;38967.53;5078885;28;20388;-63
2023/12/05 08:03:30;;;;;;;25.42;18.80;;;;;;;-145.63;49.74;38949.94;5076627;28;20228;-64
2023/12/05 08:05:55;;;;;;;28.05;19.65;;;;;;;-145.63;50.20;38813.03;5067380;28;20031;-64
2023/12/05 08:08:22;;;;;;;27.45;19.35;;;;;;;-145.63;49.18;38969.50;5083027;28;20029;-64
2023/12/05 08:10:48;;;;;;;26.48;19.15;;;;;;;-145.63;49.66;38953.84;5068584;28;20035;-63
2023/12/05 08:13:14;;;;;;;26.17;18.65;;;;;;;-145.63;48.96;38951.88;5070160;28;20131;-64
2023/12/05 08:15:39;;;;;;;27.08;19.52;;;;;;;-145.63;49.29;38936.25;5070005;28;20104;-65
2023/12/05 08:18:05;;;;;;;27.52;19.33;;;;;;;-145.63;48.85;38977.31;5085562;28;20020;-63
2023/12/05 08:20:31;;;;;;;25.40;18.67;;;;;;;-145.63;49.44;38953.84;5101494;28;20083;-64
2023/12/05 08:22:56;;;;;;;27.80;18.92;;;;;;;-145.63;49.58;38983.19;5080729;28;20317;-64
2023/12/05 08:25:22;;;;;;;28.02;18.90;;;;;;;-145.63;49.48;38969.50;5082514;28;20328;-65
2023/12/05 08:27:49;;;;;;;27.38;19.20;;;;;;;-145.63;49.23;38996.88;5082325;28;20055;-65
2023/12/05 08:30:15;;;;;;;27.77;19.42;;;;;;;-145.63;49.28;38998.81;5078024;28;20034;-65
2023/12/05 08:32:41;;;;;;;28.35;19.77;;;;;;;-145.63;49.19;38977.31;5081519;28;20043;-65
2023/12/05 08:35:07;;;;;;;27.35;19.83;;;;;;;-145.63;48.56;38977.31;5082143;28;20051;-64
2023/12/05 08:37:33;;;;;;;27.48;20.08;;;;;;;-145.63;49.27;38971.44;5082092;28;20040;-64
2023/12/05 08:39:59;;;;;;;24.27;18.38;;;;;;;-145.63;48.90;38983.19;5081786;28;20024;-64
2023/12/05 08:42:27;;;;;;;27.38;19.27;;;;;;;-145.63;49.42;39026.19;5081367;28;20213;-65
2023/12/05 08:44:54;;;;;;;26.58;19.33;;;;;;;-145.63;49.13;38985.13;5082169;28;20058;-65
2023/12/05 08:47:20;;;;;;;28.40;19.75;;;;;;;-145.63;49.23;38998.81;5082195;28;20091;-65
2023/12/05 08:49:46;;;;;;;28.52;19.50;;;;;;;-145.63;49.61;38963.63;5081674;28;20100;-65
2023/12/05 08:52:12;;;;;;;26.88;18.90;;;;;;;-145.63;49.16;38754.38;5080420;28;20024;-64
2023/12/05 08:54:38;;;;;;;29.80;19.58;;;;;;;-145.63;49.60;38967.53;5069404;28;20027;-64
2023/12/05 08:57:04;;;;;;;28.60;20.67;;;;;;;-145.63;49.25;38977.31;5076531;28;20070;-65
2023/12/05 08:59:29;;;;;;;31.55;21.48;;;;;;;-145.63;49.63;39018.38;5083642;28;20024;-65
2023/12/05 09:01:55;;;;;;;31.15;20.10;;;;;;;-145.63;50.09;38989.03;5086020;28;20342;-64
2023/12/05 09:04:21;;;;;;;28.05;20.10;;;;;;;-145.63;49.99;39012.50;5086209;28;20031;-64
2023/12/05 09:06:46;;;;;;;29.10;19.88;;;;;;;-145.63;49.73;38983.19;5086041;28;20031;-64
2023/12/05 09:09:12;;;;;;;21.65;17.00;;;;;;;-145.63;50.26;38981.22;5085829;28;20109;-65
2023/12/05 09:11:38;;;;;;;27.05;19.45;;;;;;;-145.63;50.73;38994.91;5084972;28;20028;-64
2023/12/05 09:14:05;;;;;;;24.55;18.38;;;;;;;-145.63;50.11;39006.66;5085957;28;20055;-64
2023/12/05 09:16:32;;;;;;;26.55;18.38;;;;;;;-145.63;50.33;38989.03;5085717;28;20020;-65
2023/12/05 09:18:58;;;;;;;26.45;18.42;;;;;;;-145.63;49.34;38985.13;5089507;28;20363;-63
2023/12/05 09:21:24;;;;;;;24.25;18.10;;;;;;;-145.63;50.78;38961.66;5085699;28;20020;-65
2023/12/05 09:23:49;;;;;;;25.55;18.08;;;;;;;-145.63;50.45;38963.63;5085968;28;20028;-64
2023/12/05 09:26:15;;;;;;;26.35;18.08;;;;;;;-145.63;50.52;38969.50;5085578;28;20048;-64
2023/12/05 09:28:41;;;;;;;26.15;18.08;;;;;;;-145.63;50.39;38967.53;5085639;28;20028;-64
2023/12/05 09:31:06;;;;;;;26.73;18.55;;;;;;;-145.63;50.37;38985.13;5085278;28;20032;-63
2023/12/05 09:33:32;;;;;;;24.58;16.58;;;;;;;-145.63;49.21;38947.97;5085531;28;20095;-64
2023/12/05 09:35:58;;;;;;;23.55;17.23;;;;;;;-145.63;50.92;38998.81;5085632;28;20029;-64
2023/12/05 09:38:24;;;;;;;25.48;18.20;;;;;;;-145.63;49.84;38971.44;5084337;28;20138;-64
2023/12/05 09:40:51;;;;;;;22.48;15.63;;;;;;;-145.63;50.51;38994.91;5084422;28;20032;-64
2023/12/05 09:43:21;;;;;;;22.10;15.45;;;;;;;-145.63;50.86;39063.34;5084846;28;20263;-65
2023/12/05 09:45:53;;;;;;;21.85;16.80;;;;;;;-145.63;50.35;38989.03;5084028;28;20114;-65
2023/12/05 09:48:22;;;;;;;24.10;17.70;;;;;;;-145.63;50.87;38971.44;5085482;28;20297;-64
2023/12/05 09:50:48;;;;;;;24.85;17.30;;;;;;;-145.63;50.53;38967.53;5084267;28;20035;-65
2023/12/05 09:53:14;;;;;;;27.17;18.63;;;;;;;-145.63;50.58;38699.63;5080714;28;20197;-66
2023/12/05 09:55:40;;;;;;;22.75;17.10;;;;;;;-145.63;50.32;38985.13;5085042;28;20028;-65
2023/12/05 09:58:09;;;;;;;21.90;16.58;;;;;;;-145.63;50.22;38973.41;5074655;28;20029;-65
2023/12/05 10:00:35;;;;;;;23.73;16.92;;;;;;;-145.63;50.36;39024.25;5064823;28;20025;-64
2023/12/05 10:03:05;;;;;;;21.63;16.35;;;;;;;-145.63;50.51;39016.44;5066539;28;20430;-64
2023/12/05 10:05:34;;;;;;;25.20;17.83;;;;;;;-145.63;50.43;39059.44;5085015;28;20033;-68
2023/12/05 10:08:01;;;;;;;23.17;17.20;;;;;;;-145.63;50.59;38926.47;5085240;28;20032;-64
2023/12/05 10:10:30;;;;;;;22.67;17.70;;;;;;;-145.63;50.26;38599.91;5084546;28;20028;-64
2023/12/05 10:12:56;;;;;;;22.88;16.50;;;;;;;-145.63;50.00;38992.97;5076083;28;20032;-64
2023/12/05 10:15:22;;;;;;;21.83;16.50;;;;;;;-145.63;50.16;38985.13;5069490;28;20028;-65
2023/12/05 10:17:49;;;;;;;21.65;16.23;;;;;;;-145.63;50.51;39010.56;5084951;28;20035;-65
2023/12/05 10:20:14;;;;;;;21.98;16.17;;;;;;;-145.63;50.86;38985.13;5084820;28;20103;-64
2023/12/05 10:22:40;;;;;;;22.80;17.23;;;;;;;-145.63;50.70;39024.25;5085073;28;20024;-64
2023/12/05 10:25:07;;;;;;;21.60;16.00;;;;;;;-145.63;50.49;39002.72;5084525;28;20039;-65
2023/12/05 10:27:33;;;;;;;23.80;17.45;;;;;;;-145.63;51.36;39008.59;5084510;28;20032;-63
2023/12/05 10:29:58;;;;;;;21.27;16.77;;;;;;;-145.63;51.38;38996.88;5083745;28;20024;-64
2023/12/05 10:32:30;;;;;;;22.35;15.82;;;;;;;-145.63;49.93;39006.66;5064681;28;20028;-65
2023/12/05 10:35:01;;;;;;;20.05;15.75;;;;;;;-145.63;49.88;39000.78;5081542;28;20059;-64
2023/12/05 10:37:30;;;;;;;21.08;15.82;;;;;;;-145.63;50.83;39063.34;5083228;28;20073;-65
2023/12/05 10:40:00;;;;;;;21.67;16.05;;;;;;;-145.63;50.66;39008.59;5084379;28;20087;-64
2023/12/05 10:42:27;;;;;;;20.48;14.63;;;;;;;-145.63;50.42;38977.31;5080059;28;20036;-65
2023/12/05 10:44:54;;;;;;;21.58;16.33;;;;;;;-145.63;50.09;39020.34;5064039;28;20025;-64
2023/12/05 10:47:20;;;;;;;21.08;14.25;;;;;;;-145.63;50.53;39010.56;5084015;28;20036;-65
2023/12/05 10:49:47;;;;;;;21.10;14.45;;;;;;;-145.63;49.74;39008.59;5084475;28;20029;-64
2023/12/05 10:52:13;;;;;;;19.85;14.50;;;;;;;-145.63;49.39;39032.06;5084238;28;20042;-65
2023/12/05 10:54:40;;;;;;;19.02;15.40;;;;;;;-145.63;50.80;39153.31;5077847;28;20051;-66
2023/12/05 10:57:09;;;;;;;20.02;15.07;;;;;;;-145.63;50.59;39002.72;5065837;28;20025;-64
2023/12/05 10:59:40;;;;;;;20.52;16.20;;;;;;;-145.63;50.74;39022.28;5084179;28;20039;-64